sensor_id;sensor_type;location;lat;lon;timestamp;P1;durP1;ratioP1;P2;durP2;ratioP2
64291;SDS011;50628;51.008;13.658;2023-04-15T00:03:53;0.67;;;0.60;;
64291;SDS011;50628;51.008;13.658;2023-04-15T00:08:56;0.93;;;0.70;;
64291;SDS011;50628;51.008;13.658;2023-04-15T00:13:58;1.03;;;0.90;;
64291;SDS011;50628;51.008;13.658;2023-04-15T00:19:01;0.63;;;0.63;;
64291;SDS011;50628;51.008;13.658;2023-04-15T00:24:04;0.50;;;0.50;;
64291;SDS011;50628;51.008;13.658;2023-04-15T00:29:06;0.50;;;0.50;;
64291;SDS011;50628;51.008;13.658;2023-04-15T00:34:11;0.60;;;0.60;;
64291;SDS011;50628;51.008;13.658;2023-04-15T00:39:13;1.00;;;0.83;;
64291;SDS011;50628;51.008;13.658;2023-04-15T00:44:16;0.30;;;0.30;;
64291;SDS011;50628;51.008;13.658;2023-04-15T00:49:20;0.40;;;0.40;;
64291;SDS011;50628;51.008;13.658;2023-04-15T00:54:23;0.60;;;0.60;;
64291;SDS011;50628;51.008;13.658;2023-04-15T00:59:25;1.73;;;0.40;;
64291;SDS011;50628;51.008;13.658;2023-04-15T01:04:29;0.50;;;0.50;;
64291;SDS011;50628;51.008;13.658;2023-04-15T01:09:32;0.43;;;0.43;;
64291;SDS011;50628;51.008;13.658;2023-04-15T01:14:34;0.40;;;0.40;;
64291;SDS011;50628;51.008;13.658;2023-04-15T01:19:38;0.50;;;0.50;;
64291;SDS011;50628;51.008;13.658;2023-04-15T01:24:41;0.60;;;0.60;;
64291;SDS011;50628;51.008;13.658;2023-04-15T01:29:51;0.47;;;0.47;;
64291;SDS011;50628;51.008;13.658;2023-04-15T01:34:53;0.70;;;0.50;;
64291;SDS011;50628;51.008;13.658;2023-04-15T01:39:57;0.50;;;0.50;;
64291;SDS011;50628;51.008;13.658;2023-04-15T01:45:00;0.67;;;0.67;;
64291;SDS011;50628;51.008;13.658;2023-04-15T01:50:03;0.50;;;0.50;;
64291;SDS011;50628;51.008;13.658;2023-04-15T01:55:06;1.10;;;0.73;;
64291;SDS011;50628;51.008;13.658;2023-04-15T02:00:10;1.00;;;0.60;;
64291;SDS011;50628;51.008;13.658;2023-04-15T02:05:16;0.43;;;0.43;;
64291;SDS011;50628;51.008;13.658;2023-04-15T02:10:21;0.73;;;0.40;;
64291;SDS011;50628;51.008;13.658;2023-04-15T02:15:24;0.43;;;0.43;;
64291;SDS011;50628;51.008;13.658;2023-04-15T02:20:26;0.47;;;0.47;;
64291;SDS011;50628;51.008;13.658;2023-04-15T02:25:31;0.33;;;0.33;;
64291;SDS011;50628;51.008;13.658;2023-04-15T02:30:34;2.97;;;0.40;;
64291;SDS011;50628;51.008;13.658;2023-04-15T02:35:36;1.33;;;0.40;;
64291;SDS011;50628;51.008;13.658;2023-04-15T02:40:41;0.60;;;0.40;;
64291;SDS011;50628;51.008;13.658;2023-04-15T02:45:45;0.53;;;0.40;;
64291;SDS011;50628;51.008;13.658;2023-04-15T02:50:47;2.63;;;0.90;;
64291;SDS011;50628;51.008;13.658;2023-04-15T02:55:50;0.50;;;0.50;;
64291;SDS011;50628;51.008;13.658;2023-04-15T03:00:53;0.60;;;0.60;;
64291;SDS011;50628;51.008;13.658;2023-04-15T03:05:55;0.40;;;0.40;;
64291;SDS011;50628;51.008;13.658;2023-04-15T03:10:58;0.50;;;0.50;;
64291;SDS011;50628;51.008;13.658;2023-04-15T03:16:03;0.30;;;0.30;;
64291;SDS011;50628;51.008;13.658;2023-04-15T03:21:06;0.93;;;0.40;;
64291;SDS011;50628;51.008;13.658;2023-04-15T03:26:22;0.20;;;0.20;;
64291;SDS011;50628;51.008;13.658;2023-04-15T03:31:26;1.17;;;0.40;;
64291;SDS011;50628;51.008;13.658;2023-04-15T03:36:29;0.50;;;0.50;;
64291;SDS011;50628;51.008;13.658;2023-04-15T03:41:32;0.97;;;0.70;;
64291;SDS011;50628;51.008;13.658;2023-04-15T03:46:36;0.77;;;0.40;;
64291;SDS011;50628;51.008;13.658;2023-04-15T03:51:38;0.70;;;0.53;;
64291;SDS011;50628;51.008;13.658;2023-04-15T03:56:39;0.50;;;0.50;;
64291;SDS011;50628;51.008;13.658;2023-04-15T04:01:43;0.70;;;0.60;;
64291;SDS011;50628;51.008;13.658;2023-04-15T04:06:45;0.70;;;0.50;;
64291;SDS011;50628;51.008;13.658;2023-04-15T04:11:47;0.83;;;0.40;;
64291;SDS011;50628;51.008;13.658;2023-04-15T04:16:51;0.40;;;0.40;;
64291;SDS011;50628;51.008;13.658;2023-04-15T04:21:52;0.30;;;0.30;;
64291;SDS011;50628;51.008;13.658;2023-04-15T04:26:54;0.97;;;0.77;;
64291;SDS011;50628;51.008;13.658;2023-04-15T04:31:58;0.43;;;0.43;;
64291;SDS011;50628;51.008;13.658;2023-04-15T04:37:00;0.70;;;0.50;;
64291;SDS011;50628;51.008;13.658;2023-04-15T04:42:02;0.80;;;0.40;;
64291;SDS011;50628;51.008;13.658;2023-04-15T04:47:05;0.50;;;0.50;;
64291;SDS011;50628;51.008;13.658;2023-04-15T04:52:07;1.33;;;0.70;;
64291;SDS011;50628;51.008;13.658;2023-04-15T04:57:09;0.93;;;0.83;;
64291;SDS011;50628;51.008;13.658;2023-04-15T05:02:14;0.67;;;0.67;;
64291;SDS011;50628;51.008;13.658;2023-04-15T05:07:16;1.70;;;0.60;;
64291;SDS011;50628;51.008;13.658;2023-04-15T05:12:20;0.87;;;0.60;;
64291;SDS011;50628;51.008;13.658;2023-04-15T05:17:23;0.67;;;0.67;;
64291;SDS011;50628;51.008;13.658;2023-04-15T05:22:25;0.77;;;0.70;;
64291;SDS011;50628;51.008;13.658;2023-04-15T05:27:26;0.50;;;0.50;;
64291;SDS011;50628;51.008;13.658;2023-04-15T05:32:30;0.57;;;0.57;;
64291;SDS011;50628;51.008;13.658;2023-04-15T05:37:32;0.87;;;0.87;;
64291;SDS011;50628;51.008;13.658;2023-04-15T05:42:33;0.40;;;0.40;;
64291;SDS011;50628;51.008;13.658;2023-04-15T05:47:37;0.40;;;0.40;;
64291;SDS011;50628;51.008;13.658;2023-04-15T05:52:39;0.70;;;0.30;;
64291;SDS011;50628;51.008;13.658;2023-04-15T05:57:41;0.43;;;0.30;;
64291;SDS011;50628;51.008;13.658;2023-04-15T06:02:44;1.07;;;0.40;;
64291;SDS011;50628;51.008;13.658;2023-04-15T06:07:46;1.27;;;0.50;;
64291;SDS011;50628;51.008;13.658;2023-04-15T06:12:49;0.73;;;0.60;;
64291;SDS011;50628;51.008;13.658;2023-04-15T06:17:54;1.90;;;0.83;;
64291;SDS011;50628;51.008;13.658;2023-04-15T06:22:56;1.97;;;0.93;;
64291;SDS011;50628;51.008;13.658;2023-04-15T06:27:58;2.13;;;0.47;;
64291;SDS011;50628;51.008;13.658;2023-04-15T06:33:02;0.40;;;0.40;;
64291;SDS011;50628;51.008;13.658;2023-04-15T06:38:04;0.77;;;0.37;;
64291;SDS011;50628;51.008;13.658;2023-04-15T06:43:06;0.37;;;0.20;;
64291;SDS011;50628;51.008;13.658;2023-04-15T06:48:10;1.17;;;0.30;;
64291;SDS011;50628;51.008;13.658;2023-04-15T06:53:12;0.53;;;0.20;;
64291;SDS011;50628;51.008;13.658;2023-04-15T06:58:14;0.30;;;0.30;;
64291;SDS011;50628;51.008;13.658;2023-04-15T07:03:20;0.30;;;0.30;;
64291;SDS011;50628;51.008;13.658;2023-04-15T07:08:22;0.30;;;0.23;;
64291;SDS011;50628;51.008;13.658;2023-04-15T07:13:24;0.50;;;0.30;;
64291;SDS011;50628;51.008;13.658;2023-04-15T07:18:28;1.17;;;1.03;;
64291;SDS011;50628;51.008;13.658;2023-04-15T07:23:29;2.13;;;0.90;;
64291;SDS011;50628;51.008;13.658;2023-04-15T07:28:31;2.13;;;0.77;;
64291;SDS011;50628;51.008;13.658;2023-04-15T07:33:35;5.80;;;3.50;;
64291;SDS011;50628;51.008;13.658;2023-04-15T07:38:37;0.83;;;0.40;;
64291;SDS011;50628;51.008;13.658;2023-04-15T07:43:40;0.83;;;0.40;;
64291;SDS011;50628;51.008;13.658;2023-04-15T07:48:43;2.50;;;0.70;;
64291;SDS011;50628;51.008;13.658;2023-04-15T07:53:45;1.80;;;0.43;;
64291;SDS011;50628;51.008;13.658;2023-04-15T07:58:47;0.37;;;0.33;;
64291;SDS011;50628;51.008;13.658;2023-04-15T08:03:51;0.50;;;0.50;;
64291;SDS011;50628;51.008;13.658;2023-04-15T08:08:52;2.20;;;0.50;;
64291;SDS011;50628;51.008;13.658;2023-04-15T08:13:54;0.67;;;0.47;;
64291;SDS011;50628;51.008;13.658;2023-04-15T08:18:58;0.87;;;0.57;;
64291;SDS011;50628;51.008;13.658;2023-04-15T08:24:00;0.93;;;0.83;;
64291;SDS011;50628;51.008;13.658;2023-04-15T08:29:02;0.80;;;0.50;;
64291;SDS011;50628;51.008;13.658;2023-04-15T08:34:05;3.13;;;0.50;;
64291;SDS011;50628;51.008;13.658;2023-04-15T08:39:07;0.63;;;0.47;;
64291;SDS011;50628;51.008;13.658;2023-04-15T08:44:09;1.13;;;0.53;;
64291;SDS011;50628;51.008;13.658;2023-04-15T08:49:13;1.10;;;0.57;;
64291;SDS011;50628;51.008;13.658;2023-04-15T08:54:16;1.87;;;1.17;;
64291;SDS011;50628;51.008;13.658;2023-04-15T08:59:19;0.87;;;0.70;;
64291;SDS011;50628;51.008;13.658;2023-04-15T09:04:23;1.23;;;1.10;;
64291;SDS011;50628;51.008;13.658;2023-04-15T09:09:25;0.93;;;0.67;;
64291;SDS011;50628;51.008;13.658;2023-04-15T09:14:28;0.40;;;0.40;;
64291;SDS011;50628;51.008;13.658;2023-04-15T09:19:32;1.17;;;0.50;;
64291;SDS011;50628;51.008;13.658;2023-04-15T09:24:35;0.90;;;0.63;;
64291;SDS011;50628;51.008;13.658;2023-04-15T09:29:39;2.40;;;0.90;;
64291;SDS011;50628;51.008;13.658;2023-04-15T09:34:43;0.77;;;0.77;;
64291;SDS011;50628;51.008;13.658;2023-04-15T09:39:46;1.33;;;1.10;;
64291;SDS011;50628;51.008;13.658;2023-04-15T09:44:49;0.70;;;0.70;;
64291;SDS011;50628;51.008;13.658;2023-04-15T09:49:55;1.93;;;1.43;;
64291;SDS011;50628;51.008;13.658;2023-04-15T09:54:58;1.23;;;1.13;;
64291;SDS011;50628;51.008;13.658;2023-04-15T10:00:01;1.50;;;1.40;;
64291;SDS011;50628;51.008;13.658;2023-04-15T10:05:08;1.40;;;1.10;;
64291;SDS011;50628;51.008;13.658;2023-04-15T10:10:12;1.53;;;1.43;;
64291;SDS011;50628;51.008;13.658;2023-04-15T10:15:15;2.00;;;1.80;;
64291;SDS011;50628;51.008;13.658;2023-04-15T10:20:20;2.80;;;2.60;;
64291;SDS011;50628;51.008;13.658;2023-04-15T10:25:23;2.83;;;2.60;;
64291;SDS011;50628;51.008;13.658;2023-04-15T10:30:27;2.60;;;2.40;;
64291;SDS011;50628;51.008;13.658;2023-04-15T10:35:32;4.23;;;2.40;;
64291;SDS011;50628;51.008;13.658;2023-04-15T10:40:34;3.93;;;2.47;;
64291;SDS011;50628;51.008;13.658;2023-04-15T10:45:37;2.70;;;2.50;;
64291;SDS011;50628;51.008;13.658;2023-04-15T10:50:42;3.87;;;2.43;;
64291;SDS011;50628;51.008;13.658;2023-04-15T10:55:56;2.93;;;2.27;;
64291;SDS011;50628;51.008;13.658;2023-04-15T11:00:58;3.20;;;2.50;;
64291;SDS011;50628;51.008;13.658;2023-04-15T11:06:05;4.30;;;2.17;;
64291;SDS011;50628;51.008;13.658;2023-04-15T11:11:07;4.37;;;2.00;;
64291;SDS011;50628;51.008;13.658;2023-04-15T11:16:09;2.30;;;2.10;;
64291;SDS011;50628;51.008;13.658;2023-04-15T11:21:13;6.17;;;2.67;;
64291;SDS011;50628;51.008;13.658;2023-04-15T11:26:15;3.83;;;2.60;;
64291;SDS011;50628;51.008;13.658;2023-04-15T11:31:17;5.03;;;2.43;;
64291;SDS011;50628;51.008;13.658;2023-04-15T11:36:20;5.13;;;2.87;;
64291;SDS011;50628;51.008;13.658;2023-04-15T11:41:25;6.70;;;2.70;;
64291;SDS011;50628;51.008;13.658;2023-04-15T11:46:27;4.33;;;1.87;;
64291;SDS011;50628;51.008;13.658;2023-04-15T11:51:32;1.80;;;1.33;;
64291;SDS011;50628;51.008;13.658;2023-04-15T11:56:34;4.47;;;1.80;;
64291;SDS011;50628;51.008;13.658;2023-04-15T12:01:37;4.23;;;1.80;;
64291;SDS011;50628;51.008;13.658;2023-04-15T12:06:43;2.10;;;1.83;;
64291;SDS011;50628;51.008;13.658;2023-04-15T12:11:46;2.57;;;1.80;;
64291;SDS011;50628;51.008;13.658;2023-04-15T12:16:49;1.90;;;1.80;;
64291;SDS011;50628;51.008;13.658;2023-04-15T12:21:56;6.97;;;2.73;;
64291;SDS011;50628;51.008;13.658;2023-04-15T12:27:03;5.13;;;3.00;;
64291;SDS011;50628;51.008;13.658;2023-04-15T12:32:06;4.47;;;2.73;;
64291;SDS011;50628;51.008;13.658;2023-04-15T12:37:11;5.87;;;2.80;;
64291;SDS011;50628;51.008;13.658;2023-04-15T12:42:13;2.47;;;2.20;;
64291;SDS011;50628;51.008;13.658;2023-04-15T12:47:16;3.77;;;2.67;;
64291;SDS011;50628;51.008;13.658;2023-04-15T12:52:19;3.87;;;2.03;;
64291;SDS011;50628;51.008;13.658;2023-04-15T12:57:21;2.20;;;1.90;;
64291;SDS011;50628;51.008;13.658;2023-04-15T13:02:23;4.87;;;1.93;;
64291;SDS011;50628;51.008;13.658;2023-04-15T13:07:29;1.67;;;1.40;;
64291;SDS011;50628;51.008;13.658;2023-04-15T13:12:30;2.40;;;1.33;;
64291;SDS011;50628;51.008;13.658;2023-04-15T13:17:35;1.63;;;1.37;;
64291;SDS011;50628;51.008;13.658;2023-04-15T13:22:38;1.63;;;1.07;;
64291;SDS011;50628;51.008;13.658;2023-04-15T13:27:40;2.13;;;1.43;;
64291;SDS011;50628;51.008;13.658;2023-04-15T13:32:44;2.50;;;1.50;;
64291;SDS011;50628;51.008;13.658;2023-04-15T13:37:47;2.77;;;1.80;;
64291;SDS011;50628;51.008;13.658;2023-04-15T13:42:49;3.63;;;2.03;;
64291;SDS011;50628;51.008;13.658;2023-04-15T13:47:52;1.67;;;1.37;;
64291;SDS011;50628;51.008;13.658;2023-04-15T13:52:57;1.93;;;1.60;;
64291;SDS011;50628;51.008;13.658;2023-04-15T13:57:58;3.17;;;1.97;;
64291;SDS011;50628;51.008;13.658;2023-04-15T14:03:00;1.53;;;1.40;;
64291;SDS011;50628;51.008;13.658;2023-04-15T14:08:04;3.10;;;1.60;;
64291;SDS011;50628;51.008;13.658;2023-04-15T14:13:06;1.87;;;1.63;;
64291;SDS011;50628;51.008;13.658;2023-04-15T14:18:07;4.30;;;2.57;;
64291;SDS011;50628;51.008;13.658;2023-04-15T14:23:11;2.60;;;2.03;;
64291;SDS011;50628;51.008;13.658;2023-04-15T14:28:13;2.17;;;1.97;;
64291;SDS011;50628;51.008;13.658;2023-04-15T14:33:15;2.30;;;2.10;;
64291;SDS011;50628;51.008;13.658;2023-04-15T14:38:18;4.83;;;4.27;;
64291;SDS011;50628;51.008;13.658;2023-04-15T14:43:21;9.47;;;2.10;;
64291;SDS011;50628;51.008;13.658;2023-04-15T14:48:23;2.40;;;1.73;;
64291;SDS011;50628;51.008;13.658;2023-04-15T14:53:27;2.90;;;2.27;;
64291;SDS011;50628;51.008;13.658;2023-04-15T14:58:29;2.23;;;1.43;;
64291;SDS011;50628;51.008;13.658;2023-04-15T15:03:32;4.93;;;2.03;;
64291;SDS011;50628;51.008;13.658;2023-04-15T15:08:35;3.80;;;2.30;;
64291;SDS011;50628;51.008;13.658;2023-04-15T15:13:37;2.30;;;1.87;;
64291;SDS011;50628;51.008;13.658;2023-04-15T15:18:39;2.93;;;2.30;;
64291;SDS011;50628;51.008;13.658;2023-04-15T15:23:42;3.43;;;1.90;;
64291;SDS011;50628;51.008;13.658;2023-04-15T15:28:44;2.93;;;2.30;;
64291;SDS011;50628;51.008;13.658;2023-04-15T15:33:46;4.17;;;1.83;;
64291;SDS011;50628;51.008;13.658;2023-04-15T15:38:50;6.53;;;1.93;;
64291;SDS011;50628;51.008;13.658;2023-04-15T15:43:52;7.07;;;2.97;;
64291;SDS011;50628;51.008;13.658;2023-04-15T15:48:54;3.73;;;1.77;;
64291;SDS011;50628;51.008;13.658;2023-04-15T15:53:58;6.97;;;3.30;;
64291;SDS011;50628;51.008;13.658;2023-04-15T15:58:59;3.27;;;1.77;;
64291;SDS011;50628;51.008;13.658;2023-04-15T16:04:01;6.53;;;2.67;;
64291;SDS011;50628;51.008;13.658;2023-04-15T16:09:04;4.77;;;2.93;;
64291;SDS011;50628;51.008;13.658;2023-04-15T16:14:06;5.63;;;2.87;;
64291;SDS011;50628;51.008;13.658;2023-04-15T16:19:08;3.10;;;2.80;;
64291;SDS011;50628;51.008;13.658;2023-04-15T16:24:12;5.53;;;3.07;;
64291;SDS011;50628;51.008;13.658;2023-04-15T16:29:13;6.03;;;2.90;;
64291;SDS011;50628;51.008;13.658;2023-04-15T16:34:15;7.20;;;3.37;;
64291;SDS011;50628;51.008;13.658;2023-04-15T16:39:19;6.97;;;3.50;;
64291;SDS011;50628;51.008;13.658;2023-04-15T16:44:22;7.73;;;4.60;;
64291;SDS011;50628;51.008;13.658;2023-04-15T16:49:25;18.97;;;6.57;;
64291;SDS011;50628;51.008;13.658;2023-04-15T16:54:28;6.47;;;4.67;;
64291;SDS011;50628;51.008;13.658;2023-04-15T16:59:30;8.30;;;4.53;;
64291;SDS011;50628;51.008;13.658;2023-04-15T17:04:32;11.90;;;4.53;;
64291;SDS011;50628;51.008;13.658;2023-04-15T17:09:35;4.73;;;3.50;;
64291;SDS011;50628;51.008;13.658;2023-04-15T17:14:39;5.27;;;3.13;;
64291;SDS011;50628;51.008;13.658;2023-04-15T17:19:41;7.97;;;3.93;;
64291;SDS011;50628;51.008;13.658;2023-04-15T17:24:44;6.83;;;5.03;;
64291;SDS011;50628;51.008;13.658;2023-04-15T17:29:46;5.63;;;4.73;;
64291;SDS011;50628;51.008;13.658;2023-04-15T17:34:48;14.60;;;4.90;;
64291;SDS011;50628;51.008;13.658;2023-04-15T17:39:51;7.17;;;4.80;;
64291;SDS011;50628;51.008;13.658;2023-04-15T17:44:53;13.77;;;4.20;;
64291;SDS011;50628;51.008;13.658;2023-04-15T17:49:55;5.00;;;3.90;;
64291;SDS011;50628;51.008;13.658;2023-04-15T17:54:58;6.30;;;4.23;;
64291;SDS011;50628;51.008;13.658;2023-04-15T18:00:00;8.27;;;5.87;;
64291;SDS011;50628;51.008;13.658;2023-04-15T18:05:02;6.23;;;4.70;;
64291;SDS011;50628;51.008;13.658;2023-04-15T18:10:06;5.60;;;5.10;;
64291;SDS011;50628;51.008;13.658;2023-04-15T18:15:09;7.83;;;4.73;;
64291;SDS011;50628;51.008;13.658;2023-04-15T18:20:13;13.47;;;7.23;;
64291;SDS011;50628;51.008;13.658;2023-04-15T18:25:17;11.43;;;6.33;;
64291;SDS011;50628;51.008;13.658;2023-04-15T18:30:18;8.33;;;6.23;;
64291;SDS011;50628;51.008;13.658;2023-04-15T18:35:20;9.63;;;5.23;;
64291;SDS011;50628;51.008;13.658;2023-04-15T18:40:24;7.17;;;5.93;;
64291;SDS011;50628;51.008;13.658;2023-04-15T18:45:27;11.30;;;6.57;;
64291;SDS011;50628;51.008;13.658;2023-04-15T18:50:30;10.03;;;6.60;;
64291;SDS011;50628;51.008;13.658;2023-04-15T18:55:33;12.77;;;7.33;;
64291;SDS011;50628;51.008;13.658;2023-04-15T19:00:35;8.93;;;8.03;;
64291;SDS011;50628;51.008;13.658;2023-04-15T19:05:40;9.27;;;6.90;;
64291;SDS011;50628;51.008;13.658;2023-04-15T19:10:44;7.30;;;6.60;;
64291;SDS011;50628;51.008;13.658;2023-04-15T19:15:46;12.07;;;7.17;;
64291;SDS011;50628;51.008;13.658;2023-04-15T19:20:47;9.70;;;8.43;;
64291;SDS011;50628;51.008;13.658;2023-04-15T19:25:52;12.87;;;9.10;;
64291;SDS011;50628;51.008;13.658;2023-04-15T19:30:54;12.50;;;10.87;;
64291;SDS011;50628;51.008;13.658;2023-04-15T19:35:57;14.17;;;9.57;;
64291;SDS011;50628;51.008;13.658;2023-04-15T19:41:03;14.43;;;11.17;;
64291;SDS011;50628;51.008;13.658;2023-04-15T19:46:05;13.90;;;11.70;;
64291;SDS011;50628;51.008;13.658;2023-04-15T19:51:07;13.60;;;10.50;;
64291;SDS011;50628;51.008;13.658;2023-04-15T19:56:11;12.20;;;10.10;;
64291;SDS011;50628;51.008;13.658;2023-04-15T20:01:13;18.00;;;12.80;;
64291;SDS011;50628;51.008;13.658;2023-04-15T20:06:15;15.03;;;13.43;;
64291;SDS011;50628;51.008;13.658;2023-04-15T20:11:18;16.37;;;12.80;;
64291;SDS011;50628;51.008;13.658;2023-04-15T20:16:21;17.10;;;13.77;;
64291;SDS011;50628;51.008;13.658;2023-04-15T20:21:23;16.63;;;12.40;;
64291;SDS011;50628;51.008;13.658;2023-04-15T20:26:26;16.43;;;13.03;;
64291;SDS011;50628;51.008;13.658;2023-04-15T20:31:28;14.30;;;12.03;;
64291;SDS011;50628;51.008;13.658;2023-04-15T20:36:30;15.80;;;12.30;;
64291;SDS011;50628;51.008;13.658;2023-04-15T20:41:33;17.10;;;14.57;;
64291;SDS011;50628;51.008;13.658;2023-04-15T20:46:35;22.23;;;15.30;;
64291;SDS011;50628;51.008;13.658;2023-04-15T20:51:37;10.50;;;8.70;;
64291;SDS011;50628;51.008;13.658;2023-04-15T20:56:40;10.23;;;8.57;;
64291;SDS011;50628;51.008;13.658;2023-04-15T21:01:42;10.03;;;8.80;;
64291;SDS011;50628;51.008;13.658;2023-04-15T21:06:44;13.27;;;8.07;;
64291;SDS011;50628;51.008;13.658;2023-04-15T21:11:48;13.63;;;9.80;;
64291;SDS011;50628;51.008;13.658;2023-04-15T21:16:50;12.87;;;11.17;;
64291;SDS011;50628;51.008;13.658;2023-04-15T21:21:52;12.30;;;11.00;;
64291;SDS011;50628;51.008;13.658;2023-04-15T21:26:56;16.10;;;12.40;;
64291;SDS011;50628;51.008;13.658;2023-04-15T21:31:58;13.57;;;12.07;;
64291;SDS011;50628;51.008;13.658;2023-04-15T21:37:02;14.87;;;12.57;;
64291;SDS011;50628;51.008;13.658;2023-04-15T21:42:05;13.80;;;12.03;;
64291;SDS011;50628;51.008;13.658;2023-04-15T21:47:07;14.50;;;12.30;;
64291;SDS011;50628;51.008;13.658;2023-04-15T21:52:09;15.30;;;12.00;;
64291;SDS011;50628;51.008;13.658;2023-04-15T21:57:13;14.07;;;12.17;;
64291;SDS011;50628;51.008;13.658;2023-04-15T22:02:14;15.67;;;12.50;;
64291;SDS011;50628;51.008;13.658;2023-04-15T22:07:16;14.60;;;13.07;;
64291;SDS011;50628;51.008;13.658;2023-04-15T22:12:21;17.30;;;13.30;;
64291;SDS011;50628;51.008;13.658;2023-04-15T22:17:23;17.63;;;14.90;;
64291;SDS011;50628;51.008;13.658;2023-04-15T22:22:26;17.20;;;15.40;;
64291;SDS011;50628;51.008;13.658;2023-04-15T22:27:30;17.43;;;14.63;;
64291;SDS011;50628;51.008;13.658;2023-04-15T22:32:32;12.80;;;11.20;;
64291;SDS011;50628;51.008;13.658;2023-04-15T22:37:34;13.27;;;11.70;;
64291;SDS011;50628;51.008;13.658;2023-04-15T22:42:38;13.37;;;11.87;;
64291;SDS011;50628;51.008;13.658;2023-04-15T22:47:40;15.40;;;12.90;;
64291;SDS011;50628;51.008;13.658;2023-04-15T22:52:41;16.70;;;13.13;;
64291;SDS011;50628;51.008;13.658;2023-04-15T22:57:47;13.63;;;12.27;;
64291;SDS011;50628;51.008;13.658;2023-04-15T23:02:49;14.10;;;11.63;;
64291;SDS011;50628;51.008;13.658;2023-04-15T23:07:51;14.40;;;12.57;;
64291;SDS011;50628;51.008;13.658;2023-04-15T23:12:54;14.30;;;12.67;;
64291;SDS011;50628;51.008;13.658;2023-04-15T23:17:56;16.90;;;12.67;;
64291;SDS011;50628;51.008;13.658;2023-04-15T23:22:59;13.87;;;12.47;;
64291;SDS011;50628;51.008;13.658;2023-04-15T23:28:02;15.70;;;11.97;;
64291;SDS011;50628;51.008;13.658;2023-04-15T23:33:04;14.47;;;12.83;;
64291;SDS011;50628;51.008;13.658;2023-04-15T23:38:06;15.57;;;12.20;;
64291;SDS011;50628;51.008;13.658;2023-04-15T23:43:09;14.40;;;12.20;;
64291;SDS011;50628;51.008;13.658;2023-04-15T23:48:11;14.17;;;11.33;;
64291;SDS011;50628;51.008;13.658;2023-04-15T23:53:13;13.73;;;11.63;;
64291;SDS011;50628;51.008;13.658;2023-04-15T23:58:16;18.57;;;12.40;;
